sensor_id;sensor_type;location;lat;lon;timestamp;temperature;humidity
4245;DHT22;2136;48.502;9.194;2022-07-11T00:02:16;16.50;62.30
4245;DHT22;2136;48.502;9.194;2022-07-11T00:04:44;16.50;62.20
4245;DHT22;2136;48.502;9.194;2022-07-11T00:07:12;16.50;62.30
4245;DHT22;2136;48.502;9.194;2022-07-11T00:09:39;16.40;62.40
4245;DHT22;2136;48.502;9.194;2022-07-11T00:12:08;16.40;62.50
4245;DHT22;2136;48.502;9.194;2022-07-11T00:14:37;16.40;62.60
4245;DHT22;2136;48.502;9.194;2022-07-11T00:17:05;16.30;62.70
4245;DHT22;2136;48.502;9.194;2022-07-11T00:19:33;16.30;63.00
4245;DHT22;2136;48.502;9.194;2022-07-11T00:22:00;16.20;63.00
4245;DHT22;2136;48.502;9.194;2022-07-11T00:24:26;16.20;63.40
4245;DHT22;2136;48.502;9.194;2022-07-11T00:26:53;16.10;63.80
4245;DHT22;2136;48.502;9.194;2022-07-11T00:29:20;16.10;64.10
4245;DHT22;2136;48.502;9.194;2022-07-11T00:31:48;16.00;64.20
4245;DHT22;2136;48.502;9.194;2022-07-11T00:34:15;16.00;64.60
4245;DHT22;2136;48.502;9.194;2022-07-11T00:36:43;16.00;65.10
4245;DHT22;2136;48.502;9.194;2022-07-11T00:39:10;16.00;65.20
4245;DHT22;2136;48.502;9.194;2022-07-11T00:41:36;16.00;65.40
4245;DHT22;2136;48.502;9.194;2022-07-11T00:44:03;16.00;65.60
4245;DHT22;2136;48.502;9.194;2022-07-11T00:46:30;16.00;65.70
4245;DHT22;2136;48.502;9.194;2022-07-11T00:48:59;16.00;65.90
4245;DHT22;2136;48.502;9.194;2022-07-11T00:51:27;15.90;65.90
4245;DHT22;2136;48.502;9.194;2022-07-11T00:53:56;15.90;66.10
4245;DHT22;2136;48.502;9.194;2022-07-11T00:56:25;15.90;66.10
4245;DHT22;2136;48.502;9.194;2022-07-11T00:58:52;16.00;66.50
4245;DHT22;2136;48.502;9.194;2022-07-11T01:01:20;16.00;66.80
4245;DHT22;2136;48.502;9.194;2022-07-11T01:03:47;16.00;66.90
4245;DHT22;2136;48.502;9.194;2022-07-11T01:06:15;16.00;66.60
4245;DHT22;2136;48.502;9.194;2022-07-11T01:08:43;16.00;66.90
4245;DHT22;2136;48.502;9.194;2022-07-11T01:11:11;16.00;67.20
4245;DHT22;2136;48.502;9.194;2022-07-11T01:13:41;16.00;67.80
4245;DHT22;2136;48.502;9.194;2022-07-11T01:16:12;16.00;66.90
4245;DHT22;2136;48.502;9.194;2022-07-11T01:18:41;16.00;66.90
4245;DHT22;2136;48.502;9.194;2022-07-11T01:21:22;16.00;67.00
4245;DHT22;2136;48.502;9.194;2022-07-11T01:23:52;16.00;67.30
4245;DHT22;2136;48.502;9.194;2022-07-11T01:26:20;16.00;67.20
4245;DHT22;2136;48.502;9.194;2022-07-11T01:28:47;15.90;67.00
4245;DHT22;2136;48.502;9.194;2022-07-11T01:31:14;16.00;67.20
4245;DHT22;2136;48.502;9.194;2022-07-11T01:33:41;16.00;67.20
4245;DHT22;2136;48.502;9.194;2022-07-11T01:36:08;16.00;67.40
4245;DHT22;2136;48.502;9.194;2022-07-11T01:38:35;16.00;67.50
4245;DHT22;2136;48.502;9.194;2022-07-11T01:41:04;16.00;67.70
4245;DHT22;2136;48.502;9.194;2022-07-11T01:43:31;16.00;67.70
4245;DHT22;2136;48.502;9.194;2022-07-11T01:45:58;16.00;67.70
4245;DHT22;2136;48.502;9.194;2022-07-11T01:48:25;16.00;67.70
4245;DHT22;2136;48.502;9.194;2022-07-11T01:50:52;16.00;67.20
4245;DHT22;2136;48.502;9.194;2022-07-11T01:53:20;16.00;67.20
4245;DHT22;2136;48.502;9.194;2022-07-11T01:55:46;15.90;67.00
4245;DHT22;2136;48.502;9.194;2022-07-11T01:58:15;15.90;67.40
4245;DHT22;2136;48.502;9.194;2022-07-11T02:00:41;15.90;67.90
4245;DHT22;2136;48.502;9.194;2022-07-11T02:03:09;15.90;67.80
4245;DHT22;2136;48.502;9.194;2022-07-11T02:05:36;15.90;67.60
4245;DHT22;2136;48.502;9.194;2022-07-11T02:08:06;15.80;67.50
4245;DHT22;2136;48.502;9.194;2022-07-11T02:10:40;15.90;68.00
4245;DHT22;2136;48.502;9.194;2022-07-11T02:13:07;15.80;68.20
4245;DHT22;2136;48.502;9.194;2022-07-11T02:15:36;15.80;68.40
4245;DHT22;2136;48.502;9.194;2022-07-11T02:18:03;15.70;68.50
4245;DHT22;2136;48.502;9.194;2022-07-11T02:20:31;15.70;68.60
4245;DHT22;2136;48.502;9.194;2022-07-11T02:22:58;15.70;69.70
4245;DHT22;2136;48.502;9.194;2022-07-11T02:25:26;15.70;69.00
4245;DHT22;2136;48.502;9.194;2022-07-11T02:27:53;15.70;69.10
4245;DHT22;2136;48.502;9.194;2022-07-11T02:30:20;15.60;69.50
4245;DHT22;2136;48.502;9.194;2022-07-11T02:32:48;15.60;69.60
4245;DHT22;2136;48.502;9.194;2022-07-11T02:35:15;15.50;69.70
4245;DHT22;2136;48.502;9.194;2022-07-11T02:37:42;15.50;70.00
4245;DHT22;2136;48.502;9.194;2022-07-11T02:40:10;15.50;70.30
4245;DHT22;2136;48.502;9.194;2022-07-11T02:42:37;15.50;70.50
4245;DHT22;2136;48.502;9.194;2022-07-11T02:45:05;15.50;70.60
4245;DHT22;2136;48.502;9.194;2022-07-11T02:47:34;15.40;70.90
4245;DHT22;2136;48.502;9.194;2022-07-11T02:50:03;15.40;71.00
4245;DHT22;2136;48.502;9.194;2022-07-11T02:52:31;15.40;71.30
4245;DHT22;2136;48.502;9.194;2022-07-11T02:54:58;15.30;71.30
4245;DHT22;2136;48.502;9.194;2022-07-11T02:57:25;15.30;71.60
4245;DHT22;2136;48.502;9.194;2022-07-11T02:59:52;15.20;71.60
4245;DHT22;2136;48.502;9.194;2022-07-11T03:02:19;15.30;72.00
4245;DHT22;2136;48.502;9.194;2022-07-11T03:04:45;15.20;72.40
4245;DHT22;2136;48.502;9.194;2022-07-11T03:07:14;15.20;72.90
4245;DHT22;2136;48.502;9.194;2022-07-11T03:09:42;15.20;73.10
4245;DHT22;2136;48.502;9.194;2022-07-11T03:12:09;15.20;73.20
4245;DHT22;2136;48.502;9.194;2022-07-11T03:14:36;15.20;73.40
4245;DHT22;2136;48.502;9.194;2022-07-11T03:17:03;15.20;73.50
4245;DHT22;2136;48.502;9.194;2022-07-11T03:19:30;15.20;73.60
4245;DHT22;2136;48.502;9.194;2022-07-11T03:21:57;15.20;73.30
4245;DHT22;2136;48.502;9.194;2022-07-11T03:24:25;15.20;73.10
4245;DHT22;2136;48.502;9.194;2022-07-11T03:26:52;15.20;73.40
4245;DHT22;2136;48.502;9.194;2022-07-11T03:29:18;15.30;73.50
4245;DHT22;2136;48.502;9.194;2022-07-11T03:31:45;15.40;72.70
4245;DHT22;2136;48.502;9.194;2022-07-11T03:34:12;15.40;72.30
4245;DHT22;2136;48.502;9.194;2022-07-11T03:36:39;15.40;72.10
4245;DHT22;2136;48.502;9.194;2022-07-11T03:39:06;15.40;72.50
4245;DHT22;2136;48.502;9.194;2022-07-11T03:41:34;15.40;71.90
4245;DHT22;2136;48.502;9.194;2022-07-11T03:44:01;15.40;72.00
4245;DHT22;2136;48.502;9.194;2022-07-11T03:46:28;15.50;72.30
4245;DHT22;2136;48.502;9.194;2022-07-11T03:48:54;15.40;71.90
4245;DHT22;2136;48.502;9.194;2022-07-11T03:51:21;15.40;72.10
4245;DHT22;2136;48.502;9.194;2022-07-11T03:53:48;15.40;71.90
4245;DHT22;2136;48.502;9.194;2022-07-11T03:56:15;15.40;71.80
4245;DHT22;2136;48.502;9.194;2022-07-11T03:58:47;15.40;71.80
4245;DHT22;2136;48.502;9.194;2022-07-11T04:01:14;15.40;71.90
4245;DHT22;2136;48.502;9.194;2022-07-11T04:03:41;15.40;72.00
4245;DHT22;2136;48.502;9.194;2022-07-11T04:06:08;15.30;71.60
4245;DHT22;2136;48.502;9.194;2022-07-11T04:08:35;15.30;72.00
4245;DHT22;2136;48.502;9.194;2022-07-11T04:11:02;15.20;72.20
4245;DHT22;2136;48.502;9.194;2022-07-11T04:13:29;15.20;72.20
4245;DHT22;2136;48.502;9.194;2022-07-11T04:15:58;15.20;72.40
4245;DHT22;2136;48.502;9.194;2022-07-11T04:18:25;15.10;72.50
4245;DHT22;2136;48.502;9.194;2022-07-11T04:20:52;15.10;72.90
4245;DHT22;2136;48.502;9.194;2022-07-11T04:23:19;15.10;73.30
4245;DHT22;2136;48.502;9.194;2022-07-11T04:25:46;15.10;73.80
4245;DHT22;2136;48.502;9.194;2022-07-11T04:28:13;15.10;74.20
4245;DHT22;2136;48.502;9.194;2022-07-11T04:30:39;15.10;74.50
4245;DHT22;2136;48.502;9.194;2022-07-11T04:33:08;15.00;74.70
4245;DHT22;2136;48.502;9.194;2022-07-11T04:35:34;15.00;75.30
4245;DHT22;2136;48.502;9.194;2022-07-11T04:38:01;15.10;75.60
4245;DHT22;2136;48.502;9.194;2022-07-11T04:40:29;15.10;75.90
4245;DHT22;2136;48.502;9.194;2022-07-11T04:42:55;15.10;76.10
4245;DHT22;2136;48.502;9.194;2022-07-11T04:45:22;15.10;76.10
4245;DHT22;2136;48.502;9.194;2022-07-11T04:47:49;15.20;75.70
4245;DHT22;2136;48.502;9.194;2022-07-11T04:50:17;15.20;75.60
4245;DHT22;2136;48.502;9.194;2022-07-11T04:52:44;15.30;75.60
4245;DHT22;2136;48.502;9.194;2022-07-11T04:55:11;15.30;75.40
4245;DHT22;2136;48.502;9.194;2022-07-11T04:57:38;15.40;75.00
4245;DHT22;2136;48.502;9.194;2022-07-11T05:00:06;15.50;74.40
4245;DHT22;2136;48.502;9.194;2022-07-11T05:02:33;15.50;74.50
4245;DHT22;2136;48.502;9.194;2022-07-11T05:05:00;15.60;74.30
4245;DHT22;2136;48.502;9.194;2022-07-11T05:07:28;15.60;73.80
4245;DHT22;2136;48.502;9.194;2022-07-11T05:09:55;15.70;73.10
4245;DHT22;2136;48.502;9.194;2022-07-11T05:12:23;15.70;72.90
4245;DHT22;2136;48.502;9.194;2022-07-11T05:14:50;15.80;72.80
4245;DHT22;2136;48.502;9.194;2022-07-11T05:17:17;15.80;72.70
4245;DHT22;2136;48.502;9.194;2022-07-11T05:19:44;15.80;72.50
4245;DHT22;2136;48.502;9.194;2022-07-11T05:22:10;15.90;72.50
4245;DHT22;2136;48.502;9.194;2022-07-11T05:24:39;15.90;72.30
4245;DHT22;2136;48.502;9.194;2022-07-11T05:27:05;15.90;72.00
4245;DHT22;2136;48.502;9.194;2022-07-11T05:29:32;16.00;72.00
4245;DHT22;2136;48.502;9.194;2022-07-11T05:31:59;16.00;71.50
4245;DHT22;2136;48.502;9.194;2022-07-11T05:34:26;16.00;71.40
4245;DHT22;2136;48.502;9.194;2022-07-11T05:36:53;16.10;71.60
4245;DHT22;2136;48.502;9.194;2022-07-11T05:39:20;16.10;71.40
4245;DHT22;2136;48.502;9.194;2022-07-11T05:41:48;16.20;71.20
4245;DHT22;2136;48.502;9.194;2022-07-11T05:44:17;16.20;71.00
4245;DHT22;2136;48.502;9.194;2022-07-11T05:46:44;16.20;70.90
4245;DHT22;2136;48.502;9.194;2022-07-11T05:49:11;16.20;70.70
4245;DHT22;2136;48.502;9.194;2022-07-11T05:51:39;16.20;71.00
4245;DHT22;2136;48.502;9.194;2022-07-11T05:54:07;16.30;71.30
4245;DHT22;2136;48.502;9.194;2022-07-11T05:56:34;16.30;71.50
4245;DHT22;2136;48.502;9.194;2022-07-11T05:59:02;16.40;71.40
4245;DHT22;2136;48.502;9.194;2022-07-11T06:01:29;16.40;71.30
4245;DHT22;2136;48.502;9.194;2022-07-11T06:03:57;16.40;71.30
4245;DHT22;2136;48.502;9.194;2022-07-11T06:06:25;16.40;71.10
4245;DHT22;2136;48.502;9.194;2022-07-11T06:08:52;16.50;70.80
4245;DHT22;2136;48.502;9.194;2022-07-11T06:11:19;16.60;71.00
4245;DHT22;2136;48.502;9.194;2022-07-11T06:13:46;16.60;70.00
4245;DHT22;2136;48.502;9.194;2022-07-11T06:16:16;16.70;69.60
4245;DHT22;2136;48.502;9.194;2022-07-11T06:18:43;16.70;69.30
4245;DHT22;2136;48.502;9.194;2022-07-11T06:21:11;16.80;69.00
4245;DHT22;2136;48.502;9.194;2022-07-11T06:23:38;16.80;68.70
4245;DHT22;2136;48.502;9.194;2022-07-11T06:26:05;16.90;68.30
4245;DHT22;2136;48.502;9.194;2022-07-11T06:28:32;16.90;68.30
4245;DHT22;2136;48.502;9.194;2022-07-11T06:31:00;17.00;68.10
4245;DHT22;2136;48.502;9.194;2022-07-11T06:33:29;17.10;68.10
4245;DHT22;2136;48.502;9.194;2022-07-11T06:35:56;17.10;68.20
4245;DHT22;2136;48.502;9.194;2022-07-11T06:38:23;17.20;68.50
4245;DHT22;2136;48.502;9.194;2022-07-11T06:40:50;17.20;68.90
4245;DHT22;2136;48.502;9.194;2022-07-11T06:43:16;17.30;68.80
4245;DHT22;2136;48.502;9.194;2022-07-11T06:45:43;17.60;69.00
4245;DHT22;2136;48.502;9.194;2022-07-11T06:48:10;17.70;68.70
4245;DHT22;2136;48.502;9.194;2022-07-11T06:50:38;18.00;68.30
4245;DHT22;2136;48.502;9.194;2022-07-11T06:53:05;18.20;67.90
4245;DHT22;2136;48.502;9.194;2022-07-11T06:55:33;18.30;67.30
4245;DHT22;2136;48.502;9.194;2022-07-11T06:58:00;18.50;66.60
4245;DHT22;2136;48.502;9.194;2022-07-11T07:00:27;18.60;66.10
4245;DHT22;2136;48.502;9.194;2022-07-11T07:02:55;18.70;65.50
4245;DHT22;2136;48.502;9.194;2022-07-11T07:05:22;18.70;64.80
4245;DHT22;2136;48.502;9.194;2022-07-11T07:07:51;18.80;64.80
4245;DHT22;2136;48.502;9.194;2022-07-11T07:10:18;18.70;64.40
4245;DHT22;2136;48.502;9.194;2022-07-11T07:12:45;18.70;64.30
4245;DHT22;2136;48.502;9.194;2022-07-11T07:15:12;18.70;64.60
4245;DHT22;2136;48.502;9.194;2022-07-11T07:17:39;18.70;64.70
4245;DHT22;2136;48.502;9.194;2022-07-11T07:20:07;18.70;65.50
4245;DHT22;2136;48.502;9.194;2022-07-11T07:22:36;18.70;65.60
4245;DHT22;2136;48.502;9.194;2022-07-11T07:25:06;18.70;65.90
4245;DHT22;2136;48.502;9.194;2022-07-11T07:27:34;18.80;67.00
4245;DHT22;2136;48.502;9.194;2022-07-11T07:30:00;18.90;66.90
4245;DHT22;2136;48.502;9.194;2022-07-11T07:32:28;18.90;67.00
4245;DHT22;2136;48.502;9.194;2022-07-11T07:34:54;19.00;67.00
4245;DHT22;2136;48.502;9.194;2022-07-11T07:37:21;19.00;66.90
4245;DHT22;2136;48.502;9.194;2022-07-11T07:39:48;19.10;66.60
4245;DHT22;2136;48.502;9.194;2022-07-11T07:42:16;19.20;67.20
4245;DHT22;2136;48.502;9.194;2022-07-11T07:44:43;19.20;67.30
4245;DHT22;2136;48.502;9.194;2022-07-11T07:47:10;19.30;67.20
4245;DHT22;2136;48.502;9.194;2022-07-11T07:49:37;19.40;66.00
4245;DHT22;2136;48.502;9.194;2022-07-11T07:52:04;19.40;64.80
4245;DHT22;2136;48.502;9.194;2022-07-11T07:54:30;19.40;64.20
4245;DHT22;2136;48.502;9.194;2022-07-11T07:56:57;19.40;65.10
4245;DHT22;2136;48.502;9.194;2022-07-11T07:59:25;19.50;65.30
4245;DHT22;2136;48.502;9.194;2022-07-11T08:01:52;19.60;66.30
4245;DHT22;2136;48.502;9.194;2022-07-11T08:04:18;19.70;65.30
4245;DHT22;2136;48.502;9.194;2022-07-11T08:06:45;19.90;64.80
4245;DHT22;2136;48.502;9.194;2022-07-11T08:09:12;20.10;64.90
4245;DHT22;2136;48.502;9.194;2022-07-11T08:11:39;20.30;65.30
4245;DHT22;2136;48.502;9.194;2022-07-11T08:14:06;20.40;62.90
4245;DHT22;2136;48.502;9.194;2022-07-11T08:16:35;20.40;62.10
4245;DHT22;2136;48.502;9.194;2022-07-11T08:19:03;20.40;61.40
4245;DHT22;2136;48.502;9.194;2022-07-11T08:21:32;20.50;61.90
4245;DHT22;2136;48.502;9.194;2022-07-11T08:23:59;20.50;62.80
4245;DHT22;2136;48.502;9.194;2022-07-11T08:26:26;20.50;62.50
4245;DHT22;2136;48.502;9.194;2022-07-11T08:28:53;20.60;62.50
4245;DHT22;2136;48.502;9.194;2022-07-11T08:31:20;20.70;62.10
4245;DHT22;2136;48.502;9.194;2022-07-11T08:33:48;20.70;62.40
4245;DHT22;2136;48.502;9.194;2022-07-11T08:36:16;20.80;62.10
4245;DHT22;2136;48.502;9.194;2022-07-11T08:38:43;20.90;61.90
4245;DHT22;2136;48.502;9.194;2022-07-11T08:41:12;21.10;61.10
4245;DHT22;2136;48.502;9.194;2022-07-11T08:43:41;21.10;60.10
4245;DHT22;2136;48.502;9.194;2022-07-11T08:46:10;21.20;59.80
4245;DHT22;2136;48.502;9.194;2022-07-11T08:48:38;21.20;59.40
4245;DHT22;2136;48.502;9.194;2022-07-11T08:51:08;21.30;59.20
4245;DHT22;2136;48.502;9.194;2022-07-11T08:53:39;21.50;59.10
4245;DHT22;2136;48.502;9.194;2022-07-11T08:56:09;21.60;58.50
4245;DHT22;2136;48.502;9.194;2022-07-11T08:58:42;21.80;58.80
4245;DHT22;2136;48.502;9.194;2022-07-11T09:01:10;21.90;58.40
4245;DHT22;2136;48.502;9.194;2022-07-11T09:03:38;22.10;58.20
4245;DHT22;2136;48.502;9.194;2022-07-11T09:06:06;22.20;56.70
4245;DHT22;2136;48.502;9.194;2022-07-11T09:08:34;22.30;54.90
4245;DHT22;2136;48.502;9.194;2022-07-11T09:11:01;22.50;54.80
4245;DHT22;2136;48.502;9.194;2022-07-11T09:13:29;22.70;54.40
4245;DHT22;2136;48.502;9.194;2022-07-11T09:16:01;22.90;54.40
4245;DHT22;2136;48.502;9.194;2022-07-11T09:18:30;23.10;54.00
4245;DHT22;2136;48.502;9.194;2022-07-11T09:21:00;23.50;53.40
4245;DHT22;2136;48.502;9.194;2022-07-11T09:23:46;23.90;52.90
4245;DHT22;2136;48.502;9.194;2022-07-11T09:26:31;24.20;52.20
4245;DHT22;2136;48.502;9.194;2022-07-11T09:28:59;24.60;52.10
4245;DHT22;2136;48.502;9.194;2022-07-11T09:31:27;24.90;50.90
4245;DHT22;2136;48.502;9.194;2022-07-11T09:34:03;25.20;49.80
4245;DHT22;2136;48.502;9.194;2022-07-11T09:36:35;25.60;48.30
4245;DHT22;2136;48.502;9.194;2022-07-11T09:39:05;25.80;47.40
4245;DHT22;2136;48.502;9.194;2022-07-11T09:41:32;25.90;47.00
4245;DHT22;2136;48.502;9.194;2022-07-11T09:44:14;26.00;47.40
4245;DHT22;2136;48.502;9.194;2022-07-11T09:46:43;26.00;47.00
4245;DHT22;2136;48.502;9.194;2022-07-11T09:49:11;26.10;47.60
4245;DHT22;2136;48.502;9.194;2022-07-11T09:51:39;26.20;47.20
4245;DHT22;2136;48.502;9.194;2022-07-11T09:54:08;26.40;47.00
4245;DHT22;2136;48.502;9.194;2022-07-11T09:56:39;26.70;46.40
4245;DHT22;2136;48.502;9.194;2022-07-11T09:59:09;27.00;45.00
4245;DHT22;2136;48.502;9.194;2022-07-11T10:01:37;27.20;45.30
4245;DHT22;2136;48.502;9.194;2022-07-11T10:04:05;27.50;45.40
4245;DHT22;2136;48.502;9.194;2022-07-11T10:06:33;28.20;44.30
4245;DHT22;2136;48.502;9.194;2022-07-11T10:09:00;29.00;43.20
4245;DHT22;2136;48.502;9.194;2022-07-11T10:11:30;29.60;41.80
4245;DHT22;2136;48.502;9.194;2022-07-11T10:13:58;30.50;40.10
4245;DHT22;2136;48.502;9.194;2022-07-11T10:16:35;31.10;40.30
4245;DHT22;2136;48.502;9.194;2022-07-11T10:19:16;31.40;38.00
4245;DHT22;2136;48.502;9.194;2022-07-11T10:21:50;32.60;38.70
4245;DHT22;2136;48.502;9.194;2022-07-11T10:24:31;34.00;35.40
4245;DHT22;2136;48.502;9.194;2022-07-11T10:27:06;35.10;33.00
4245;DHT22;2136;48.502;9.194;2022-07-11T10:29:38;35.20;31.60
4245;DHT22;2136;48.502;9.194;2022-07-11T10:32:07;35.80;31.70
4245;DHT22;2136;48.502;9.194;2022-07-11T10:34:35;37.30;31.00
4245;DHT22;2136;48.502;9.194;2022-07-11T10:37:03;38.70;29.90
4245;DHT22;2136;48.502;9.194;2022-07-11T10:39:31;39.00;28.80
4245;DHT22;2136;48.502;9.194;2022-07-11T10:42:01;40.30;27.80
4245;DHT22;2136;48.502;9.194;2022-07-11T10:47:31;40.40;27.70
4245;DHT22;2136;48.502;9.194;2022-07-11T10:50:01;40.60;27.20
4245;DHT22;2136;48.502;9.194;2022-07-11T10:52:30;40.80;26.90
4245;DHT22;2136;48.502;9.194;2022-07-11T10:55:13;40.20;26.60
4245;DHT22;2136;48.502;9.194;2022-07-11T10:57:54;40.30;27.00
4245;DHT22;2136;48.502;9.194;2022-07-11T11:00:24;39.70;27.20
4245;DHT22;2136;48.502;9.194;2022-07-11T11:03:00;40.50;27.80
4245;DHT22;2136;48.502;9.194;2022-07-11T11:05:47;43.10;26.90
4245;DHT22;2136;48.502;9.194;2022-07-11T11:08:43;45.80;25.30
4245;DHT22;2136;48.502;9.194;2022-07-11T11:11:46;47.00;23.60
4245;DHT22;2136;48.502;9.194;2022-07-11T11:14:22;46.20;22.80
4245;DHT22;2136;48.502;9.194;2022-07-11T11:16:51;44.20;23.00
4245;DHT22;2136;48.502;9.194;2022-07-11T11:19:49;42.50;24.00
4245;DHT22;2136;48.502;9.194;2022-07-11T11:22:17;41.20;25.00
4245;DHT22;2136;48.502;9.194;2022-07-11T11:24:45;40.70;26.00
4245;DHT22;2136;48.502;9.194;2022-07-11T11:27:17;41.70;26.30
4245;DHT22;2136;48.502;9.194;2022-07-11T11:29:46;43.10;25.30
4245;DHT22;2136;48.502;9.194;2022-07-11T11:32:13;42.60;24.90
4245;DHT22;2136;48.502;9.194;2022-07-11T11:34:40;41.40;25.00
4245;DHT22;2136;48.502;9.194;2022-07-11T11:37:07;40.70;25.40
4245;DHT22;2136;48.502;9.194;2022-07-11T11:39:36;39.70;26.10
4245;DHT22;2136;48.502;9.194;2022-07-11T11:42:09;39.20;27.20
4245;DHT22;2136;48.502;9.194;2022-07-11T11:44:55;40.40;27.20
4245;DHT22;2136;48.502;9.194;2022-07-11T11:47:25;40.50;26.30
4245;DHT22;2136;48.502;9.194;2022-07-11T11:49:52;40.00;26.50
4245;DHT22;2136;48.502;9.194;2022-07-11T11:52:19;39.50;26.70
4245;DHT22;2136;48.502;9.194;2022-07-11T11:54:54;39.60;28.20
4245;DHT22;2136;48.502;9.194;2022-07-11T11:57:23;40.90;27.20
4245;DHT22;2136;48.502;9.194;2022-07-11T11:59:52;41.30;26.30
4245;DHT22;2136;48.502;9.194;2022-07-11T12:02:27;40.90;25.30
4245;DHT22;2136;48.502;9.194;2022-07-11T12:04:55;39.60;25.60
4245;DHT22;2136;48.502;9.194;2022-07-11T12:07:27;39.00;26.40
4245;DHT22;2136;48.502;9.194;2022-07-11T12:09:55;39.80;26.70
4245;DHT22;2136;48.502;9.194;2022-07-11T12:12:25;41.20;27.10
4245;DHT22;2136;48.502;9.194;2022-07-11T12:15:27;42.30;26.30
4245;DHT22;2136;48.502;9.194;2022-07-11T12:17:59;42.60;25.20
4245;DHT22;2136;48.502;9.194;2022-07-11T12:20:37;41.90;24.90
4245;DHT22;2136;48.502;9.194;2022-07-11T12:23:06;40.90;24.70
4245;DHT22;2136;48.502;9.194;2022-07-11T12:25:34;39.50;25.30
4245;DHT22;2136;48.502;9.194;2022-07-11T12:28:01;38.00;26.80
4245;DHT22;2136;48.502;9.194;2022-07-11T12:30:29;36.80;27.50
4245;DHT22;2136;48.502;9.194;2022-07-11T12:33:10;36.80;28.80
4245;DHT22;2136;48.502;9.194;2022-07-11T12:35:51;38.50;29.20
4245;DHT22;2136;48.502;9.194;2022-07-11T12:38:18;40.00;28.20
4245;DHT22;2136;48.502;9.194;2022-07-11T12:40:58;41.30;26.60
4245;DHT22;2136;48.502;9.194;2022-07-11T12:43:41;40.90;26.00
4245;DHT22;2136;48.502;9.194;2022-07-11T12:46:29;39.60;26.50
4245;DHT22;2136;48.502;9.194;2022-07-11T12:48:56;39.10;27.00
4245;DHT22;2136;48.502;9.194;2022-07-11T12:51:28;38.20;27.20
4245;DHT22;2136;48.502;9.194;2022-07-11T12:54:03;37.10;28.20
4245;DHT22;2136;48.502;9.194;2022-07-11T12:56:30;36.30;29.80
4245;DHT22;2136;48.502;9.194;2022-07-11T12:58:57;36.00;29.70
4245;DHT22;2136;48.502;9.194;2022-07-11T13:01:25;35.40;29.80
4245;DHT22;2136;48.502;9.194;2022-07-11T13:03:53;34.70;30.70
4245;DHT22;2136;48.502;9.194;2022-07-11T13:06:20;34.20;31.30
4245;DHT22;2136;48.502;9.194;2022-07-11T13:09:08;33.90;32.10
4245;DHT22;2136;48.502;9.194;2022-07-11T13:11:34;33.90;32.00
4245;DHT22;2136;48.502;9.194;2022-07-11T13:14:01;33.80;32.50
4245;DHT22;2136;48.502;9.194;2022-07-11T13:16:28;33.40;32.10
4245;DHT22;2136;48.502;9.194;2022-07-11T13:18:56;33.00;32.80
4245;DHT22;2136;48.502;9.194;2022-07-11T13:21:24;32.60;33.50
4245;DHT22;2136;48.502;9.194;2022-07-11T13:23:52;32.20;34.20
4245;DHT22;2136;48.502;9.194;2022-07-11T13:26:19;31.80;35.00
4245;DHT22;2136;48.502;9.194;2022-07-11T13:28:46;31.50;35.00
4245;DHT22;2136;48.502;9.194;2022-07-11T13:31:13;31.20;35.50
4245;DHT22;2136;48.502;9.194;2022-07-11T13:33:40;30.80;36.50
4245;DHT22;2136;48.502;9.194;2022-07-11T13:36:08;30.60;36.40
4245;DHT22;2136;48.502;9.194;2022-07-11T13:38:35;30.40;36.40
4245;DHT22;2136;48.502;9.194;2022-07-11T13:41:02;30.20;37.30
4245;DHT22;2136;48.502;9.194;2022-07-11T13:43:30;30.10;37.10
4245;DHT22;2136;48.502;9.194;2022-07-11T13:45:57;30.20;38.00
4245;DHT22;2136;48.502;9.194;2022-07-11T13:48:24;30.30;38.00
4245;DHT22;2136;48.502;9.194;2022-07-11T13:50:51;30.40;38.50
4245;DHT22;2136;48.502;9.194;2022-07-11T13:53:19;30.20;38.10
4245;DHT22;2136;48.502;9.194;2022-07-11T13:55:46;30.00;38.50
4245;DHT22;2136;48.502;9.194;2022-07-11T13:58:12;29.70;38.20
4245;DHT22;2136;48.502;9.194;2022-07-11T14:00:52;29.50;38.50
4245;DHT22;2136;48.502;9.194;2022-07-11T14:03:18;29.40;38.40
4245;DHT22;2136;48.502;9.194;2022-07-11T14:05:46;29.50;39.10
4245;DHT22;2136;48.502;9.194;2022-07-11T14:08:13;30.10;39.10
4245;DHT22;2136;48.502;9.194;2022-07-11T14:10:42;30.30;38.90
4245;DHT22;2136;48.502;9.194;2022-07-11T14:13:09;30.10;39.10
4245;DHT22;2136;48.502;9.194;2022-07-11T14:15:38;29.90;39.20
4245;DHT22;2136;48.502;9.194;2022-07-11T14:18:06;29.60;39.40
4245;DHT22;2136;48.502;9.194;2022-07-11T14:20:33;29.20;39.60
4245;DHT22;2136;48.502;9.194;2022-07-11T14:23:00;29.10;39.80
4245;DHT22;2136;48.502;9.194;2022-07-11T14:25:27;28.90;40.30
4245;DHT22;2136;48.502;9.194;2022-07-11T14:27:55;28.90;41.00
4245;DHT22;2136;48.502;9.194;2022-07-11T14:30:22;28.90;41.30
4245;DHT22;2136;48.502;9.194;2022-07-11T14:32:49;28.90;40.90
4245;DHT22;2136;48.502;9.194;2022-07-11T14:35:17;28.90;41.20
4245;DHT22;2136;48.502;9.194;2022-07-11T14:37:43;28.80;40.90
4245;DHT22;2136;48.502;9.194;2022-07-11T14:40:11;28.70;41.10
4245;DHT22;2136;48.502;9.194;2022-07-11T14:42:38;28.60;41.50
4245;DHT22;2136;48.502;9.194;2022-07-11T14:45:07;28.50;41.40
4245;DHT22;2136;48.502;9.194;2022-07-11T14:47:34;28.40;42.00
4245;DHT22;2136;48.502;9.194;2022-07-11T14:50:01;28.30;42.00
4245;DHT22;2136;48.502;9.194;2022-07-11T14:52:28;28.20;41.90
4245;DHT22;2136;48.502;9.194;2022-07-11T14:54:55;28.10;41.70
4245;DHT22;2136;48.502;9.194;2022-07-11T14:57:22;28.00;41.50
4245;DHT22;2136;48.502;9.194;2022-07-11T14:59:49;28.00;41.50
4245;DHT22;2136;48.502;9.194;2022-07-11T15:02:18;28.00;41.80
4245;DHT22;2136;48.502;9.194;2022-07-11T15:05:05;28.10;42.30
4245;DHT22;2136;48.502;9.194;2022-07-11T15:07:32;28.10;42.30
4245;DHT22;2136;48.502;9.194;2022-07-11T15:10:17;28.00;42.30
4245;DHT22;2136;48.502;9.194;2022-07-11T15:13:01;28.10;42.60
4245;DHT22;2136;48.502;9.194;2022-07-11T15:15:28;28.10;42.30
4245;DHT22;2136;48.502;9.194;2022-07-11T15:17:57;28.00;42.50
4245;DHT22;2136;48.502;9.194;2022-07-11T15:20:24;28.10;42.50
4245;DHT22;2136;48.502;9.194;2022-07-11T15:22:51;28.00;42.90
4245;DHT22;2136;48.502;9.194;2022-07-11T15:25:18;28.00;42.90
4245;DHT22;2136;48.502;9.194;2022-07-11T15:27:46;27.90;42.50
4245;DHT22;2136;48.502;9.194;2022-07-11T15:30:13;27.90;42.80
4245;DHT22;2136;48.502;9.194;2022-07-11T15:32:42;27.80;42.90
4245;DHT22;2136;48.502;9.194;2022-07-11T15:35:11;27.80;42.80
4245;DHT22;2136;48.502;9.194;2022-07-11T15:37:38;27.80;42.90
4245;DHT22;2136;48.502;9.194;2022-07-11T15:40:05;27.70;42.90
4245;DHT22;2136;48.502;9.194;2022-07-11T15:42:34;27.60;43.90
4245;DHT22;2136;48.502;9.194;2022-07-11T15:45:01;27.50;43.20
4245;DHT22;2136;48.502;9.194;2022-07-11T15:47:28;27.50;43.30
4245;DHT22;2136;48.502;9.194;2022-07-11T15:49:55;27.50;43.80
4245;DHT22;2136;48.502;9.194;2022-07-11T15:52:23;27.50;44.10
4245;DHT22;2136;48.502;9.194;2022-07-11T15:54:50;27.40;44.40
4245;DHT22;2136;48.502;9.194;2022-07-11T15:57:17;27.30;43.70
4245;DHT22;2136;48.502;9.194;2022-07-11T15:59:44;27.30;44.20
4245;DHT22;2136;48.502;9.194;2022-07-11T16:02:11;27.30;44.70
4245;DHT22;2136;48.502;9.194;2022-07-11T16:04:38;27.20;45.30
4245;DHT22;2136;48.502;9.194;2022-07-11T16:07:05;27.20;45.50
4245;DHT22;2136;48.502;9.194;2022-07-11T16:09:33;27.00;44.60
4245;DHT22;2136;48.502;9.194;2022-07-11T16:12:01;26.90;45.00
4245;DHT22;2136;48.502;9.194;2022-07-11T16:14:28;26.80;44.90
4245;DHT22;2136;48.502;9.194;2022-07-11T16:16:55;26.80;45.50